createdAt,value
2023-03-19T00:00:28.139Z,19.35
2023-03-19T00:02:54.989Z,16.70
2023-03-19T00:05:22.356Z,22.23
2023-03-19T00:07:49.303Z,25.33
2023-03-19T00:10:16.095Z,20.75
2023-03-19T00:12:42.982Z,20.52
2023-03-19T00:15:14.455Z,23.88
2023-03-19T00:17:43.368Z,19.08
2023-03-19T00:20:12.347Z,19.00
2023-03-19T00:22:40.210Z,18.00
2023-03-19T00:25:08.479Z,17.95
2023-03-19T00:27:36.626Z,22.65
2023-03-19T00:30:05.043Z,20.02
2023-03-19T00:32:33.593Z,19.98
2023-03-19T00:35:00.304Z,19.20
2023-03-19T00:37:27.556Z,19.02
2023-03-19T00:39:54.220Z,21.08
2023-03-19T00:42:21.065Z,18.10
2023-03-19T00:44:47.798Z,20.70
2023-03-19T00:47:14.503Z,19.17
2023-03-19T00:49:41.206Z,20.75
2023-03-19T00:52:09.356Z,21.65
2023-03-19T00:54:36.305Z,23.13
2023-03-19T00:57:03.015Z,20.13
2023-03-19T00:59:29.822Z,22.17
2023-03-19T01:01:56.769Z,22.23
2023-03-19T01:04:23.607Z,25.70
2023-03-19T01:06:50.592Z,21.23
2023-03-19T01:09:18.582Z,25.23
2023-03-19T01:11:45.225Z,26.00
2023-03-19T01:14:12.602Z,28.88
2023-03-19T01:16:39.407Z,24.80
2023-03-19T01:19:06.516Z,27.05
2023-03-19T01:21:34.155Z,18.67
2023-03-19T01:24:01.247Z,24.25
2023-03-19T01:26:28.147Z,25.13
2023-03-19T01:28:54.862Z,26.48
2023-03-19T01:31:22.134Z,23.27
2023-03-19T01:33:48.923Z,28.60
2023-03-19T01:36:15.619Z,28.23
2023-03-19T01:38:42.766Z,23.85
2023-03-19T01:41:09.863Z,24.65
2023-03-19T01:43:36.702Z,24.48
2023-03-19T01:46:07.217Z,25.63
2023-03-19T01:48:41.054Z,30.17
2023-03-19T01:51:10.610Z,31.85
2023-03-19T01:53:40.291Z,34.35
2023-03-19T01:56:16.594Z,34.90
2023-03-19T01:58:44.848Z,30.13
2023-03-19T02:01:11.704Z,23.63
2023-03-19T02:03:39.501Z,21.80
2023-03-19T02:06:06.773Z,19.90
2023-03-19T02:08:33.876Z,23.02
2023-03-19T02:11:02.260Z,19.45
2023-03-19T02:13:29.119Z,19.60
2023-03-19T02:15:55.899Z,17.05
2023-03-19T02:18:23.067Z,15.88
2023-03-19T02:20:55.784Z,18.10
2023-03-19T02:23:50.343Z,22.67
2023-03-19T02:26:22.332Z,26.70
2023-03-19T02:28:51.089Z,20.65
2023-03-19T02:31:18.882Z,17.85
2023-03-19T02:33:56.257Z,20.42
2023-03-19T02:36:23.703Z,21.77
2023-03-19T02:38:51.076Z,19.02
2023-03-19T02:41:17.873Z,23.40
2023-03-19T02:43:44.681Z,18.90
2023-03-19T02:46:13.580Z,25.60
2023-03-19T02:48:41.407Z,21.05
2023-03-19T02:51:09.078Z,35.90
2023-03-19T02:53:36.402Z,22.70
2023-03-19T02:56:03.447Z,24.10
2023-03-19T02:58:30.080Z,20.50
2023-03-19T03:00:57.131Z,29.63
2023-03-19T03:03:23.854Z,25.98
2023-03-19T03:05:50.490Z,32.63
2023-03-19T03:08:17.396Z,32.13
2023-03-19T03:10:44.190Z,42.78
2023-03-19T03:13:11.317Z,47.30
2023-03-19T03:15:38.284Z,50.88
2023-03-19T03:18:05.024Z,56.30
2023-03-19T03:20:31.842Z,61.75
2023-03-19T03:22:58.917Z,49.90
2023-03-19T03:25:25.600Z,50.65
2023-03-19T03:27:53.525Z,50.20
2023-03-19T03:30:20.549Z,49.05
2023-03-19T03:32:47.341Z,54.42
2023-03-19T03:35:16.079Z,54.25
2023-03-19T03:37:42.788Z,54.58
2023-03-19T03:40:10.686Z,54.33
2023-03-19T03:42:37.623Z,53.40
2023-03-19T03:45:05.011Z,48.15
2023-03-19T03:47:32.455Z,50.00
2023-03-19T03:49:59.265Z,47.72
2023-03-19T03:52:26.536Z,49.08
2023-03-19T03:54:53.249Z,52.95
2023-03-19T03:57:20.681Z,54.83
2023-03-19T03:59:47.371Z,50.10
2023-03-19T04:02:14.267Z,54.05
2023-03-19T04:04:41.579Z,50.40
2023-03-19T04:07:08.506Z,49.90
2023-03-19T04:09:35.283Z,47.28
2023-03-19T04:12:02.523Z,54.70
2023-03-19T04:14:29.302Z,50.30
2023-03-19T04:16:56.324Z,48.10
2023-03-19T04:19:23.080Z,56.47
2023-03-19T04:21:49.755Z,55.58
2023-03-19T04:24:16.576Z,52.75
2023-03-19T04:26:43.260Z,53.40
2023-03-19T04:29:10.211Z,51.35
2023-03-19T04:31:37.366Z,56.25
2023-03-19T04:34:04.216Z,50.90
2023-03-19T04:36:31.108Z,51.72
2023-03-19T04:38:57.941Z,54.55
2023-03-19T04:41:24.681Z,51.08
2023-03-19T04:43:51.542Z,53.05
2023-03-19T04:46:18.190Z,55.08
2023-03-19T04:48:45.551Z,49.58
2023-03-19T04:51:12.383Z,49.85
2023-03-19T04:53:40.549Z,48.33
2023-03-19T04:56:08.251Z,46.92
2023-03-19T04:58:35.398Z,49.67
2023-03-19T05:01:02.522Z,51.83
2023-03-19T05:03:29.227Z,56.63
2023-03-19T05:05:56.087Z,52.75
2023-03-19T05:08:22.977Z,50.30
2023-03-19T05:10:49.673Z,45.10
2023-03-19T05:13:16.374Z,40.22
2023-03-19T05:15:45.087Z,42.38
2023-03-19T05:18:12.442Z,39.13
2023-03-19T05:20:39.979Z,44.30
2023-03-19T05:23:07.471Z,39.53
2023-03-19T05:25:35.522Z,44.72
2023-03-19T05:28:03.540Z,37.67
2023-03-19T05:30:32.325Z,40.22
2023-03-19T05:32:59.700Z,34.47
2023-03-19T05:35:27.857Z,42.53
2023-03-19T05:37:55.405Z,40.28
2023-03-19T05:40:24.187Z,39.60
2023-03-19T05:42:51.610Z,34.70
2023-03-19T05:45:18.816Z,38.63
2023-03-19T05:47:49.102Z,33.85
2023-03-19T05:50:17.427Z,32.38
2023-03-19T05:52:44.061Z,37.97
2023-03-19T05:55:11.166Z,37.00
2023-03-19T05:57:38.212Z,34.80
2023-03-19T06:00:07.307Z,30.90
2023-03-19T06:02:35.041Z,32.47
2023-03-19T06:05:01.918Z,30.50
2023-03-19T06:07:28.613Z,28.10
2023-03-19T06:09:55.390Z,25.67
2023-03-19T06:12:22.242Z,28.40
2023-03-19T06:14:48.954Z,30.77
2023-03-19T06:17:15.892Z,27.63
2023-03-19T06:19:42.762Z,26.70
2023-03-19T06:22:09.629Z,29.05
2023-03-19T06:24:37.039Z,28.02
2023-03-19T06:27:04.167Z,24.73
2023-03-19T06:29:30.965Z,27.48
2023-03-19T06:31:58.320Z,25.70
2023-03-19T06:34:25.580Z,19.13
2023-03-19T06:36:54.067Z,18.88
2023-03-19T06:39:26.045Z,20.58
2023-03-19T06:41:53.633Z,17.73
2023-03-19T06:44:23.713Z,14.07
2023-03-19T06:46:53.929Z,12.80
2023-03-19T06:49:21.041Z,13.38
2023-03-19T06:51:48.028Z,14.02
2023-03-19T06:54:14.927Z,10.07
2023-03-19T06:57:46.665Z,10.18
2023-03-19T06:59:32.379Z,10.80
2023-03-19T07:01:59.040Z,10.07
2023-03-19T07:04:26.384Z,10.10
2023-03-19T07:06:56.163Z,14.73
2023-03-19T07:09:23.872Z,13.18
2023-03-19T07:11:50.527Z,15.35
2023-03-19T07:14:17.318Z,12.70
2023-03-19T07:16:44.052Z,11.80
2023-03-19T07:19:10.918Z,13.95
2023-03-19T07:21:43.515Z,12.82
2023-03-19T07:24:10.222Z,13.05
2023-03-19T07:26:36.863Z,17.20
2023-03-19T07:29:52.522Z,16.20
2023-03-19T07:32:19.160Z,15.25
2023-03-19T07:34:48.649Z,12.88
2023-03-19T07:37:15.611Z,14.90
2023-03-19T07:39:42.264Z,14.68
2023-03-19T07:42:59.876Z,14.80
2023-03-19T07:45:26.773Z,15.15
2023-03-19T07:48:03.681Z,15.15
2023-03-19T07:50:31.566Z,15.25
2023-03-19T07:52:58.344Z,13.43
2023-03-19T07:55:25.221Z,13.43
2023-03-19T07:57:51.990Z,15.65
2023-03-19T08:00:25.477Z,13.75
2023-03-19T08:02:52.254Z,18.58
2023-03-19T08:05:19.189Z,15.63
2023-03-19T08:07:46.018Z,15.93
2023-03-19T08:10:12.982Z,18.00
2023-03-19T08:12:41.469Z,15.30
2023-03-19T08:15:09.999Z,16.08
2023-03-19T08:17:40.562Z,17.02
2023-03-19T08:20:09.910Z,16.98
2023-03-19T08:22:38.742Z,17.63
2023-03-19T08:25:06.965Z,15.95
2023-03-19T08:27:35.880Z,15.90
2023-03-19T08:30:04.525Z,15.85
2023-03-19T08:32:31.697Z,19.10
2023-03-19T08:35:03.472Z,18.40
2023-03-19T08:37:33.116Z,17.30
2023-03-19T08:39:59.805Z,24.50
2023-03-19T08:42:26.632Z,17.05
2023-03-19T08:44:53.524Z,16.00
2023-03-19T08:47:21.507Z,16.05
2023-03-19T08:49:48.107Z,18.65
2023-03-19T08:52:14.969Z,16.52
2023-03-19T08:54:41.720Z,15.82
2023-03-19T08:57:08.560Z,15.60
2023-03-19T08:59:35.308Z,16.98
2023-03-19T09:02:02.157Z,15.18
2023-03-19T09:04:29.286Z,18.77
2023-03-19T09:06:56.269Z,13.95
2023-03-19T09:09:24.869Z,17.90
2023-03-19T09:11:51.577Z,19.90
2023-03-19T09:14:20.288Z,16.30
2023-03-19T09:16:47.313Z,14.77
2023-03-19T09:19:14.220Z,17.70
2023-03-19T09:21:41.295Z,19.33
2023-03-19T09:24:08.290Z,15.80
2023-03-19T09:26:35.021Z,18.98
2023-03-19T09:29:02.297Z,16.95
2023-03-19T09:31:29.855Z,15.73
2023-03-19T09:33:57.110Z,17.67
2023-03-19T09:36:23.998Z,15.95
2023-03-19T09:38:50.977Z,15.45
2023-03-19T09:41:37.154Z,16.38
2023-03-19T09:44:06.158Z,14.60
2023-03-19T09:46:39.081Z,14.70
2023-03-19T09:49:12.386Z,18.10
2023-03-19T09:51:47.379Z,16.10
2023-03-19T09:54:25.997Z,13.88
2023-03-19T09:56:53.209Z,15.40
2023-03-19T09:59:23.800Z,14.50
2023-03-19T10:02:12.804Z,15.82
2023-03-19T10:04:43.795Z,15.88
2023-03-19T10:07:13.193Z,18.30
2023-03-19T10:10:05.295Z,16.63
2023-03-19T10:12:52.384Z,19.88
2023-03-19T10:15:27.859Z,19.38
2023-03-19T10:18:07.511Z,14.68
2023-03-19T10:20:41.181Z,19.83
2023-03-19T10:23:40.205Z,15.13
2023-03-19T10:26:11.938Z,16.27
2023-03-19T10:28:40.129Z,16.30
2023-03-19T10:31:27.400Z,17.52
2023-03-19T10:34:06.442Z,18.42
2023-03-19T10:36:36.132Z,17.75
2023-03-19T10:39:06.999Z,17.75
2023-03-19T10:42:14.264Z,20.38
2023-03-19T10:44:52.646Z,19.40
2023-03-19T10:47:20.449Z,17.10
2023-03-19T10:49:47.237Z,15.98
2023-03-19T10:52:28.912Z,17.10
2023-03-19T10:55:01.923Z,14.65
2023-03-19T10:57:32.029Z,18.60
2023-03-19T11:00:04.629Z,16.77
2023-03-19T11:02:32.581Z,15.77
2023-03-19T11:05:20.219Z,15.27
2023-03-19T11:07:51.262Z,15.95
2023-03-19T11:10:20.045Z,18.30
2023-03-19T11:12:49.122Z,19.88
2023-03-19T11:15:22.910Z,19.25
2023-03-19T11:18:01.088Z,18.08
2023-03-19T11:20:32.950Z,15.93
2023-03-19T11:23:03.242Z,16.63
2023-03-19T11:25:42.305Z,20.02
2023-03-19T11:28:20.465Z,15.45
2023-03-19T11:31:15.391Z,18.45
2023-03-19T11:34:06.790Z,18.08
2023-03-19T11:36:48.807Z,17.98
2023-03-19T11:39:25.819Z,15.88
2023-03-19T11:42:37.526Z,17.50
2023-03-19T11:45:14.383Z,16.05
2023-03-19T11:48:06.880Z,19.67
2023-03-19T11:50:52.456Z,16.77
2023-03-19T11:53:27.926Z,16.27
2023-03-19T11:56:23.949Z,22.75
2023-03-19T11:59:14.956Z,17.52
2023-03-19T12:02:00.120Z,13.65
2023-03-19T12:04:45.087Z,14.73
2023-03-19T12:07:26.587Z,14.23
2023-03-19T12:10:03.295Z,17.33
2023-03-19T12:12:58.309Z,16.58
2023-03-19T12:15:53.034Z,14.25
2023-03-19T12:18:38.319Z,16.08
2023-03-19T12:21:09.663Z,16.27
2023-03-19T12:23:58.235Z,16.70
2023-03-19T12:26:36.859Z,17.27
2023-03-19T12:29:18.695Z,18.55
2023-03-19T12:32:05.571Z,15.45
2023-03-19T12:34:48.781Z,14.38
2023-03-19T12:37:35.956Z,13.05
2023-03-19T12:40:27.488Z,13.90
2023-03-19T12:42:58.656Z,15.35
2023-03-19T12:45:33.995Z,14.43
2023-03-19T12:48:22.223Z,13.15
2023-03-19T12:50:52.681Z,12.38
2023-03-19T12:53:32.248Z,12.75
2023-03-19T12:56:02.103Z,13.80
2023-03-19T12:58:39.514Z,11.13
2023-03-19T13:01:20.948Z,11.70
2023-03-19T13:04:09.080Z,16.38
2023-03-19T13:06:37.822Z,12.32
2023-03-19T13:09:23.736Z,18.23
2023-03-19T13:11:50.909Z,13.32
2023-03-19T13:14:30.127Z,11.82
2023-03-19T13:17:21.345Z,13.10
2023-03-19T13:19:52.802Z,16.67
2023-03-19T13:22:22.257Z,16.13
2023-03-19T13:24:50.778Z,12.93
2023-03-19T13:27:30.830Z,15.32
2023-03-19T13:30:10.237Z,16.52
2023-03-19T13:32:42.540Z,15.98
2023-03-19T13:35:37.443Z,13.35
2023-03-19T13:38:24.427Z,12.32
2023-03-19T13:40:56.686Z,14.70
2023-03-19T13:43:41.940Z,12.10
2023-03-19T13:46:17.573Z,12.18
2023-03-19T13:48:47.109Z,10.70
2023-03-19T13:51:19.898Z,13.80
2023-03-19T13:54:08.320Z,13.20
2023-03-19T13:57:01.228Z,15.35
2023-03-19T13:59:33.368Z,11.70
2023-03-19T14:02:01.757Z,12.15
2023-03-19T14:04:31.040Z,13.93
2023-03-19T14:07:17.068Z,11.75
2023-03-19T14:09:49.474Z,13.65
2023-03-19T14:12:16.423Z,15.80
2023-03-19T14:14:48.200Z,14.73
2023-03-19T14:17:33.247Z,12.45
2023-03-19T14:20:36.614Z,13.02
2023-03-19T14:23:10.758Z,14.85
2023-03-19T14:25:56.897Z,13.20
2023-03-19T14:30:51.775Z,13.73
2023-03-19T14:33:23.308Z,14.75
2023-03-19T14:35:50.753Z,13.05
2023-03-19T14:38:46.787Z,15.73
2023-03-19T14:41:20.048Z,15.10
2023-03-19T14:44:25.449Z,14.63
2023-03-19T14:47:22.867Z,16.25
2023-03-19T14:50:28.870Z,14.15
2023-03-19T14:53:19.168Z,17.20
2023-03-19T14:55:51.339Z,15.57
2023-03-19T14:58:19.864Z,13.07
2023-03-19T15:00:52.325Z,14.50
2023-03-19T15:03:30.289Z,15.25
2023-03-19T15:05:59.807Z,12.13
2023-03-19T15:08:27.259Z,11.77
2023-03-19T15:11:12.365Z,14.30
2023-03-19T15:14:07.242Z,14.65
2023-03-19T15:16:43.677Z,14.02
2023-03-19T15:19:11.507Z,15.27
2023-03-19T15:21:39.336Z,14.50
2023-03-19T15:24:15.577Z,15.23
2023-03-19T15:26:53.743Z,18.20
2023-03-19T15:29:31.493Z,15.82
2023-03-19T15:32:05.255Z,17.98
2023-03-19T15:34:34.714Z,19.05
2023-03-19T15:37:05.125Z,13.20
2023-03-19T15:39:51.890Z,15.50
2023-03-19T15:42:50.135Z,15.63
2023-03-19T15:45:20.532Z,16.63
2023-03-19T15:47:55.464Z,21.00
2023-03-19T15:50:24.824Z,19.48
2023-03-19T15:52:56.153Z,18.75
2023-03-19T15:55:31.428Z,16.38
2023-03-19T15:58:09.068Z,16.42
2023-03-19T16:00:40.062Z,20.02
2023-03-19T16:03:08.068Z,19.23
2023-03-19T16:05:35.338Z,30.10
2023-03-19T16:08:31.057Z,26.58
2023-03-19T16:11:31.340Z,30.63
2023-03-19T16:14:29.168Z,29.33
2023-03-19T16:17:09.495Z,31.05
2023-03-19T16:19:38.582Z,30.42
2023-03-19T16:22:17.659Z,28.73
2023-03-19T16:24:46.679Z,27.25
2023-03-19T16:27:31.455Z,33.90
2023-03-19T16:29:59.813Z,40.72
2023-03-19T16:32:28.768Z,38.85
2023-03-19T16:34:57.880Z,41.03
2023-03-19T16:37:38.169Z,39.53
2023-03-19T16:40:25.927Z,42.35
2023-03-19T16:43:07.038Z,34.90
2023-03-19T16:45:35.293Z,46.35
2023-03-19T16:48:06.232Z,37.22
2023-03-19T16:50:37.989Z,41.15
2023-03-19T16:53:10.317Z,33.35
2023-03-19T16:55:39.836Z,38.13
2023-03-19T16:58:15.832Z,47.80
2023-03-19T17:00:44.153Z,40.50
2023-03-19T17:03:19.290Z,49.15
2023-03-19T17:05:47.322Z,40.58
2023-03-19T17:08:14.986Z,38.80
2023-03-19T17:10:48.640Z,51.20
2023-03-19T17:13:28.653Z,45.78
2023-03-19T17:16:06.805Z,42.42
2023-03-19T17:18:39.163Z,42.40
2023-03-19T17:21:12.855Z,51.45
2023-03-19T17:23:39.907Z,39.45
2023-03-19T17:26:18.810Z,47.67
2023-03-19T17:28:45.986Z,46.75
2023-03-19T17:31:26.540Z,50.25
2023-03-19T17:33:58.877Z,34.20
2023-03-19T17:36:25.981Z,40.95
2023-03-19T17:38:55.260Z,34.22
2023-03-19T17:41:22.156Z,35.85
2023-03-19T17:43:49.376Z,32.15
2023-03-19T17:46:21.087Z,28.75
2023-03-19T17:48:49.483Z,30.42
2023-03-19T17:51:16.778Z,31.23
2023-03-19T17:53:45.978Z,27.52
2023-03-19T17:56:30.757Z,34.25
2023-03-19T17:58:57.542Z,31.33
2023-03-19T18:01:28.509Z,33.28
2023-03-19T18:03:56.694Z,35.35
2023-03-19T18:06:25.771Z,29.52
2023-03-19T18:08:52.764Z,36.30
2023-03-19T18:11:19.530Z,27.42
2023-03-19T18:13:47.019Z,25.35
2023-03-19T18:16:28.317Z,22.52
2023-03-19T18:18:57.121Z,29.98
2023-03-19T18:21:23.969Z,34.03
2023-03-19T18:23:50.767Z,40.58
2023-03-19T18:26:19.009Z,40.70
2023-03-19T18:28:45.953Z,33.63
2023-03-19T18:31:18.117Z,28.45
2023-03-19T18:33:59.986Z,36.78
2023-03-19T18:36:29.812Z,66.13
2023-03-19T18:38:57.078Z,57.38
2023-03-19T18:44:35.945Z,59.53
2023-03-19T18:47:02.720Z,58.00
2023-03-19T18:49:29.689Z,61.38
2023-03-19T18:52:03.181Z,63.35
2023-03-19T18:54:31.352Z,58.05
2023-03-19T18:57:02.288Z,70.75
2023-03-19T18:59:32.867Z,65.40
2023-03-19T19:02:19.801Z,65.18
2023-03-19T19:04:47.154Z,60.17
2023-03-19T19:07:15.473Z,65.25
2023-03-19T19:09:42.550Z,66.15
2023-03-19T19:12:19.730Z,64.93
2023-03-19T19:14:47.025Z,61.97
2023-03-19T19:17:46.949Z,64.80
2023-03-19T19:20:19.574Z,62.47
2023-03-19T19:22:54.067Z,61.03
2023-03-19T19:25:26.077Z,53.30
2023-03-19T19:28:05.097Z,57.40
2023-03-19T19:30:31.925Z,54.03
2023-03-19T19:32:58.794Z,58.33
2023-03-19T19:35:28.756Z,54.10
2023-03-19T19:37:55.635Z,63.83
2023-03-19T19:40:28.683Z,55.70
2023-03-19T19:42:55.463Z,60.05
2023-03-19T19:45:40.204Z,56.17
2023-03-19T19:48:18.556Z,58.90
2023-03-19T19:50:46.353Z,63.55
2023-03-19T19:53:14.171Z,54.28
2023-03-19T19:55:41.701Z,63.35
2023-03-19T19:58:20.579Z,63.80
2023-03-19T20:01:02.304Z,64.25
2023-03-19T20:03:31.668Z,67.10
2023-03-19T20:05:59.661Z,60.35
2023-03-19T20:08:27.255Z,64.78
2023-03-19T20:10:54.615Z,72.45
2023-03-19T20:13:22.907Z,72.25
2023-03-19T20:15:50.499Z,72.50
2023-03-19T20:18:18.457Z,66.45
2023-03-19T20:20:46.048Z,56.47
2023-03-19T20:23:14.404Z,58.38
2023-03-19T20:25:41.554Z,57.03
2023-03-19T20:28:11.395Z,57.13
2023-03-19T20:30:40.858Z,55.92
2023-03-19T20:33:07.916Z,53.20
2023-03-19T20:35:53.440Z,58.25
2023-03-19T20:38:20.422Z,55.75
2023-03-19T20:40:53.613Z,58.05
2023-03-19T20:43:28.234Z,56.38
2023-03-19T20:45:57.198Z,55.05
2023-03-19T20:48:24.581Z,56.28
2023-03-19T20:50:52.430Z,55.53
2023-03-19T20:53:24.170Z,55.53
2023-03-19T20:55:51.110Z,58.28
2023-03-19T20:58:25.208Z,57.05
2023-03-19T21:00:53.831Z,61.30
2023-03-19T21:03:23.733Z,56.92
2023-03-19T21:05:52.809Z,64.43
2023-03-19T21:08:47.645Z,54.70
2023-03-19T21:11:22.486Z,50.65
2023-03-19T21:13:53.278Z,42.72
2023-03-19T21:16:22.901Z,61.50
2023-03-19T21:18:50.072Z,60.22
2023-03-19T21:21:17.971Z,65.70
2023-03-19T21:23:58.713Z,61.88
2023-03-19T21:26:26.390Z,64.35
2023-03-19T21:28:55.931Z,56.78
2023-03-19T21:31:22.786Z,62.95
2023-03-19T21:33:51.642Z,58.28
2023-03-19T21:36:18.627Z,60.88
2023-03-19T21:38:45.802Z,53.22
2023-03-19T21:41:30.247Z,52.28
2023-03-19T21:44:01.667Z,59.47
2023-03-19T21:46:30.489Z,51.25
2023-03-19T21:48:58.884Z,54.72
2023-03-19T21:51:28.347Z,54.65
2023-03-19T21:53:57.274Z,51.25
2023-03-19T21:56:33.437Z,59.03
2023-03-19T21:59:02.396Z,54.63
2023-03-19T22:01:29.460Z,57.47
2023-03-19T22:03:57.745Z,56.88
2023-03-19T22:06:25.447Z,60.08
2023-03-19T22:08:54.263Z,57.95
2023-03-19T22:11:26.664Z,54.08
2023-03-19T22:13:54.173Z,53.65
2023-03-19T22:16:24.079Z,57.60
2023-03-19T22:18:52.856Z,49.35
2023-03-19T22:21:21.905Z,50.78
2023-03-19T22:23:49.098Z,48.90
2023-03-19T22:26:30.814Z,51.42
2023-03-19T22:28:59.172Z,51.30
2023-03-19T22:31:26.088Z,45.08
2023-03-19T22:33:52.903Z,41.72
2023-03-19T22:36:19.945Z,47.40
2023-03-19T22:38:47.127Z,44.08
2023-03-19T22:41:22.156Z,38.30
2023-03-19T22:43:49.149Z,39.67
2023-03-19T22:46:18.406Z,42.50
2023-03-19T22:48:48.126Z,44.38
2023-03-19T22:51:17.357Z,43.83
2023-03-19T22:53:44.522Z,38.92
2023-03-19T22:56:12.309Z,37.97
2023-03-19T22:58:39.162Z,36.10
2023-03-19T23:01:25.151Z,39.30
2023-03-19T23:03:54.304Z,34.70
2023-03-19T23:06:30.121Z,34.65
2023-03-19T23:08:58.434Z,38.85
2023-03-19T23:11:25.758Z,37.85
2023-03-19T23:13:54.115Z,41.00
2023-03-19T23:16:24.236Z,46.58
2023-03-19T23:18:51.412Z,38.40
2023-03-19T23:21:19.504Z,33.10
2023-03-19T23:23:56.026Z,46.28
2023-03-19T23:26:28.637Z,39.50
2023-03-19T23:28:56.823Z,35.47
2023-03-19T23:31:23.830Z,37.33
2023-03-19T23:33:50.517Z,39.33
2023-03-19T23:36:17.895Z,40.33
2023-03-19T23:38:44.915Z,33.50
2023-03-19T23:41:21.328Z,34.40
2023-03-19T23:43:48.877Z,38.03
2023-03-19T23:46:16.050Z,33.60
2023-03-19T23:48:43.000Z,39.17
2023-03-19T23:51:14.353Z,40.97
2023-03-19T23:53:42.161Z,34.55
2023-03-19T23:56:20.280Z,33.75
2023-03-19T23:58:48.144Z,34.25
